Time;durP1;ratioP1;P1;durP2;ratioP2;P2;SDS_P1;SDS_P2;PMS_P1;PMS_P2;Temp;Humidity;BMP_temperature;BMP_pressure;BME280_temperature;BME280_humidity;BME280_pressure;Samples;Min_cycle;Max_cycle;Signal;HPM_P1;HPM_P2
2022/04/29 00:00:33;;;;;;;;;;;;;;;;;;10395520;28;20117;-74
2022/04/29 00:05:38;;;;;;;8.80;4.78;;;;;;;;;;10386908;28;20011;-76
2022/04/29 00:10:42;;;;;;;12.23;5.87;;;;;;;;;;10383583;28;20115;-73
2022/04/29 00:15:45;;;;;;;10.85;5.53;;;;;;;;;;10392997;28;20125;-74
2022/04/29 00:20:49;;;;;;;9.52;4.75;;;;;;;;;;10405515;28;20392;-75
2022/04/29 00:25:53;;;;;;;11.23;5.53;;;;;;;;;;10392351;28;20044;-75
2022/04/29 00:30:56;;;;;;;11.40;5.53;;;;;;;;;;10414387;28;20116;-75
2022/04/29 00:35:59;;;;;;;10.50;5.63;;;;;;;;;;10393897;28;21464;-73
2022/04/29 00:41:03;;;;;;;10.18;5.50;;;;;;;;;;10406282;28;20026;-74
2022/04/29 00:46:05;;;;;;;;;;;;;;;;;;10424481;28;20136;-74
2022/04/29 00:51:10;;;;;;;11.57;5.30;;;;;;;;;;10413028;28;19921;-74
2022/04/29 00:56:16;;;;;;;10.20;4.85;;;;;;;;;;10412287;28;20034;-74
2022/04/29 01:01:20;;;;;;;9.60;5.13;;;;;;;;;;10409907;28;20511;-74
2022/04/29 01:06:25;;;;;;;10.88;5.05;;;;;;;;;;10408988;28;20068;-73
2022/04/29 01:11:29;;;;;;;11.10;5.78;;;;;;;;;;10398748;28;20246;-74
2022/04/29 01:16:32;;;;;;;10.52;5.60;;;;;;;;;;10400076;28;20095;-74
2022/04/29 01:21:35;;;;;;;11.33;5.50;;;;;;;;;;10411762;28;20041;-74
2022/04/29 01:26:39;;;;;;;12.63;5.82;;;;;;;;;;10393086;28;20512;-75
2022/04/29 01:31:43;;;;;;;10.70;5.45;;;;;;;;;;10394003;28;20512;-74
2022/04/29 01:36:45;;;;;;;11.65;5.63;;;;;;;;;;10393720;28;20064;-74
2022/04/29 01:41:50;;;;;;;13.38;5.95;;;;;;;;;;10389877;28;20064;-73
2022/04/29 01:46:53;;;;;;;13.20;5.60;;;;;;;;;;10391553;28;20033;-74
2022/04/29 01:51:57;;;;;;;12.03;6.00;;;;;;;;;;10394333;28;20459;-74
2022/04/29 01:57:01;;;;;;;14.93;5.38;;;;;;;;;;10394683;28;20049;-73
2022/04/29 02:02:06;;;;;;;12.85;5.18;;;;;;;;;;10395139;28;20112;-74
2022/04/29 02:07:10;;;;;;;9.90;5.25;;;;;;;;;;10403246;28;20040;-74
2022/04/29 02:12:15;;;;;;;9.13;4.93;;;;;;;;;;10405949;28;20041;-75
2022/04/29 02:17:18;;;;;;;13.73;5.68;;;;;;;;;;10419725;28;21943;-74
2022/04/29 02:22:20;;;;;;;12.10;5.40;;;;;;;;;;10398287;28;20527;-74
2022/04/29 02:27:24;;;;;;;12.95;5.05;;;;;;;;;;10388679;28;20045;-75
2022/04/29 02:32:27;;;;;;;;;;;;;;;;;;10389141;28;20488;-74
2022/04/29 02:37:32;;;;;;;8.90;5.43;;;;;;;;;;10390382;28;20043;-75
2022/04/29 02:42:36;;;;;;;9.32;5.07;;;;;;;;;;10419506;28;20107;-75
2022/04/29 02:47:39;;;;;;;10.50;5.10;;;;;;;;;;10395703;28;20065;-75
2022/04/29 02:52:41;;;;;;;13.73;5.63;;;;;;;;;;10400654;28;20069;-75
2022/04/29 02:57:46;;;;;;;12.82;5.60;;;;;;;;;;10395369;28;20033;-75
2022/04/29 03:02:49;;;;;;;9.85;5.13;;;;;;;;;;10406750;28;20076;-74
2022/04/29 03:07:52;;;;;;;7.90;5.07;;;;;;;;;;10387628;28;20488;-74
2022/04/29 03:12:57;;;;;;;12.77;5.40;;;;;;;;;;10403364;28;20037;-75
2022/04/29 03:23:20;;;;;;;8.65;4.38;;;;;;;;;;10405322;28;20128;-74
2022/04/29 03:28:24;;;;;;;13.40;5.10;;;;;;;;;;10393759;28;20172;-74
2022/04/29 03:33:27;;;;;;;9.15;4.88;;;;;;;;;;10394211;28;20048;-73
2022/04/29 03:38:30;;;;;;;9.20;4.72;;;;;;;;;;10406512;28;20029;-73
2022/04/29 03:43:35;;;;;;;9.45;5.05;;;;;;;;;;10390862;28;20048;-75
2022/04/29 03:53:54;;;;;;;8.90;5.00;;;;;;;;;;10395251;28;20034;-76
2022/04/29 03:58:58;;;;;;;10.55;5.03;;;;;;;;;;10398745;28;20037;-74
2022/04/29 04:04:03;;;;;;;;;;;;;;;;;;10390290;28;20075;-74
2022/04/29 04:09:06;;;;;;;8.90;4.53;;;;;;;;;;10390574;28;19921;-75
2022/04/29 04:14:10;;;;;;;11.35;5.13;;;;;;;;;;10396911;28;20139;-75
2022/04/29 04:19:13;;;;;;;10.40;5.18;;;;;;;;;;10385798;28;20117;-75
2022/04/29 04:24:16;;;;;;;10.88;5.97;;;;;;;;;;10390212;28;20038;-75
2022/04/29 04:29:21;;;;;;;12.45;5.38;;;;;;;;;;10407797;28;20284;-75
2022/04/29 04:39:44;;;;;;;11.15;5.15;;;;;;;;;;10380178;28;20430;-75
2022/04/29 04:44:48;;;;;;;10.90;5.40;;;;;;;;;;10411173;28;20095;-75
2022/04/29 04:49:51;;;;;;;11.38;5.53;;;;;;;;;;10389665;28;20120;-74
2022/04/29 04:54:55;;;;;;;10.60;5.90;;;;;;;;;;10400835;28;20358;-75
2022/04/29 05:00:00;;;;;;;9.82;5.82;;;;;;;;;;10399710;28;20072;-74
2022/04/29 05:05:02;;;;;;;;;;;;;;;;;;10392060;28;20033;-74
2022/04/29 05:10:06;;;;;;;4.43;2.63;;;;;;;;;;10391793;28;20358;-75
2022/04/29 05:15:12;;;;;;;11.23;5.05;;;;;;;;;;10405090;28;20071;-74
2022/04/29 05:20:15;;;;;;;11.80;5.25;;;;;;;;;;10378394;28;20243;-74
2022/04/29 05:25:18;;;;;;;10.80;5.85;;;;;;;;;;10394223;28;20045;-75
2022/04/29 05:30:22;;;;;;;12.68;5.85;;;;;;;;;;10401352;28;20337;-73
2022/04/29 05:35:25;;;;;;;;;;;;;;;;;;10401886;28;20582;-73
2022/04/29 05:45:49;;;;;;;9.02;4.55;;;;;;;;;;10400743;28;20049;-72
2022/04/29 05:50:52;;;;;;;9.85;5.65;;;;;;;;;;10383993;28;20064;-73
2022/04/29 05:55:55;;;;;;;12.10;6.15;;;;;;;;;;10395423;28;20482;-73
2022/04/29 06:01:00;;;;;;;14.10;5.97;;;;;;;;;;10403945;28;20052;-74
2022/04/29 06:06:02;;;;;;;;;;;;;;;;;;10409605;28;20037;-73
2022/04/29 06:11:06;;;;;;;8.73;5.30;;;;;;;;;;10424629;28;20361;-70
2022/04/29 06:16:10;;;;;;;14.55;5.40;;;;;;;;;;10419386;28;20045;-72
2022/04/29 06:21:13;;;;;;;9.45;4.32;;;;;;;;;;10414493;28;20037;-72
2022/04/29 06:26:16;;;;;;;9.98;5.40;;;;;;;;;;10409336;28;20074;-72
2022/04/29 06:31:20;;;;;;;11.20;5.25;;;;;;;;;;10422657;28;20073;-73
2022/04/29 06:36:23;;;;;;;12.50;5.43;;;;;;;;;;10417574;28;20053;-73
2022/04/29 06:41:26;;;;;;;12.38;5.40;;;;;;;;;;10426757;28;20493;-72
2022/04/29 06:46:30;;;;;;;11.80;5.45;;;;;;;;;;10399718;28;20128;-72
2022/04/29 06:51:34;;;;;;;14.57;4.97;;;;;;;;;;10411512;28;20428;-72
2022/04/29 06:56:37;;;;;;;6.97;4.07;;;;;;;;;;10409982;28;20064;-73
2022/04/29 07:01:41;;;;;;;9.48;5.00;;;;;;;;;;10409390;28;20143;-74
2022/04/29 07:06:44;;;;;;;7.57;4.32;;;;;;;;;;10412613;28;20034;-71
2022/04/29 07:11:47;;;;;;;7.65;4.43;;;;;;;;;;10428734;28;20080;-74
2022/04/29 07:16:53;;;;;;;8.05;4.32;;;;;;;;;;10412860;28;20492;-74
2022/04/29 07:21:56;;;;;;;12.20;5.00;;;;;;;;;;10406941;28;20071;-74
2022/04/29 07:27:00;;;;;;;8.65;4.70;;;;;;;;;;10391562;28;20573;-74
2022/04/29 07:32:06;;;;;;;4.97;3.42;;;;;;;;;;10394986;28;20044;-74
2022/04/29 07:42:29;;;;;;;6.28;3.88;;;;;;;;;;10398032;28;20037;-73
2022/04/29 07:47:35;;;;;;;6.57;4.43;;;;;;;;;;10392765;28;20132;-73
2022/04/29 07:52:38;;;;;;;7.47;4.38;;;;;;;;;;10403242;28;20069;-73
2022/04/29 07:57:41;;;;;;;6.63;4.40;;;;;;;;;;10412360;28;20073;-74
2022/04/29 08:02:51;;;;;;;5.45;3.78;;;;;;;;;;10388752;28;20261;-75
2022/04/29 08:07:55;;;;;;;6.70;3.83;;;;;;;;;;10381209;28;20048;-76
2022/04/29 08:12:58;;;;;;;6.72;4.00;;;;;;;;;;10394621;28;20557;-75
2022/04/29 08:18:03;;;;;;;5.13;4.18;;;;;;;;;;10401593;28;20040;-73
2022/04/29 08:23:06;;;;;;;4.50;3.08;;;;;;;;;;10398418;28;20049;-75
2022/04/29 08:28:09;;;;;;;4.50;3.15;;;;;;;;;;10407041;28;20128;-76
2022/04/29 08:33:14;;;;;;;4.78;3.20;;;;;;;;;;10391119;28;20508;-75
2022/04/29 08:38:19;;;;;;;3.92;3.20;;;;;;;;;;10391852;28;20065;-76
2022/04/29 08:43:22;;;;;;;6.55;3.40;;;;;;;;;;10402231;28;20041;-73
2022/04/29 08:48:29;;;;;;;11.90;5.05;;;;;;;;;;10401304;28;20040;-72
2022/04/29 08:53:34;;;;;;;6.85;4.20;;;;;;;;;;10400048;28;20531;-75
2022/04/29 08:58:40;;;;;;;8.15;3.97;;;;;;;;;;10401829;28;20151;-75
2022/04/29 09:03:45;;;;;;;5.40;3.83;;;;;;;;;;10393193;28;20879;-75
2022/04/29 09:08:48;;;;;;;6.60;4.13;;;;;;;;;;10410402;28;20134;-76
2022/04/29 09:13:51;;;;;;;8.25;4.20;;;;;;;;;;10436328;28;20149;-75
2022/04/29 09:18:56;;;;;;;5.93;3.90;;;;;;;;;;10395086;28;20042;-75
2022/04/29 09:24:06;;;;;;;6.72;3.67;;;;;;;;;;10399629;28;20706;-75
2022/04/29 09:29:10;;;;;;;4.95;3.20;;;;;;;;;;10408198;28;20133;-76
2022/04/29 09:34:14;;;;;;;8.90;4.15;;;;;;;;;;10393892;28;20038;-73
2022/04/29 09:44:38;;;;;;;9.82;4.35;;;;;;;;;;10385617;28;20457;-73
2022/04/29 09:49:52;;;;;;;7.20;3.67;;;;;;;;;;10380859;28;20454;-74
2022/04/29 09:55:09;;;;;;;8.38;4.75;;;;;;;;;;10399010;28;20034;-75
2022/04/29 10:00:12;;;;;;;5.47;3.97;;;;;;;;;;10384194;28;20036;-72
2022/04/29 10:05:17;;;;;;;9.10;4.18;;;;;;;;;;10385051;28;20127;-76
2022/04/29 10:10:24;;;;;;;6.05;4.50;;;;;;;;;;10399802;28;20045;-77
2022/04/29 10:15:26;;;;;;;19.73;5.18;;;;;;;;;;10412326;28;20580;-75
2022/04/29 10:25:51;;;;;;;15.25;4.95;;;;;;;;;;10421477;28;20481;-76
2022/04/29 10:31:00;;;;;;;14.15;4.50;;;;;;;;;;10423021;28;20037;-77
2022/04/29 10:36:08;;;;;;;6.57;4.20;;;;;;;;;;10416648;28;20073;-75
2022/04/29 10:41:13;;;;;;;11.85;4.57;;;;;;;;;;10416330;28;20038;-73
2022/04/29 10:46:23;;;;;;;6.97;4.60;;;;;;;;;;10405698;28;20458;-75
2022/04/29 10:51:40;;;;;;;8.93;5.38;;;;;;;;;;10406833;28;20187;-77
2022/04/29 10:56:45;;;;;;;11.18;5.75;;;;;;;;;;10418751;28;20048;-76
2022/04/29 11:01:49;;;;;;;4.35;3.92;;;;;;;;;;10418034;28;20032;-74
2022/04/29 11:06:52;;;;;;;5.50;4.43;;;;;;;;;;10409410;28;20041;-75
2022/04/29 11:11:57;;;;;;;8.88;4.43;;;;;;;;;;10432811;28;20455;-74
2022/04/29 11:17:08;;;;;;;6.95;4.32;;;;;;;;;;10430236;28;20099;-75
2022/04/29 11:27:54;;;;;;;10.57;5.20;;;;;;;;;;10306827;28;20049;-75
2022/04/29 11:32:58;;;;;;;6.47;4.45;;;;;;;;;;10372144;28;20223;-76
2022/04/29 11:38:01;;;;;;;9.38;4.80;;;;;;;;;;10412680;28;20111;-75
2022/04/29 11:43:10;;;;;;;5.38;4.40;;;;;;;;;;10405651;28;20041;-74
2022/04/29 11:48:13;;;;;;;6.55;4.78;;;;;;;;;;10412045;28;20107;-75
2022/04/29 11:53:16;;;;;;;12.15;6.07;;;;;;;;;;10409371;28;20402;-76
2022/04/29 11:58:20;;;;;;;12.15;5.88;;;;;;;;;;10423194;28;20052;-75
2022/04/29 12:03:24;;;;;;;12.10;5.25;;;;;;;;;;10403783;28;20033;-75
2022/04/29 12:08:37;;;;;;;10.13;5.18;;;;;;;;;;10395797;28;20057;-73
2022/04/29 12:13:41;;;;;;;8.38;4.80;;;;;;;;;;10407450;28;20120;-76
2022/04/29 12:18:45;;;;;;;7.63;4.60;;;;;;;;;;10406833;28;20045;-76
2022/04/29 12:23:49;;;;;;;48.35;8.85;;;;;;;;;;10419908;28;20478;-76
2022/04/29 12:28:57;;;;;;;27.80;7.60;;;;;;;;;;10403461;28;20049;-76
2022/04/29 12:39:25;;;;;;;9.73;6.07;;;;;;;;;;10417765;28;20050;-77
2022/04/29 12:50:24;;;;;;;8.95;5.95;;;;;;;;;;10402522;28;20038;-77
2022/04/29 12:55:29;;;;;;;7.13;5.10;;;;;;;;;;10418561;28;20120;-74
2022/04/29 13:00:35;;;;;;;10.95;5.22;;;;;;;;;;10411210;28;20513;-76
2022/04/29 13:05:38;;;;;;;10.85;4.80;;;;;;;;;;10413759;28;20045;-76
2022/04/29 13:10:42;;;;;;;8.75;4.90;;;;;;;;;;10408461;28;20132;-74
2022/04/29 13:15:47;;;;;;;7.50;4.50;;;;;;;;;;10408585;28;20045;-75
2022/04/29 13:20:51;;;;;;;8.00;4.72;;;;;;;;;;10410306;28;20033;-75
2022/04/29 13:25:56;;;;;;;8.30;4.43;;;;;;;;;;10395822;28;20037;-75
2022/04/29 13:31:02;;;;;;;9.32;4.95;;;;;;;;;;10395858;28;20056;-75
2022/04/29 13:36:07;;;;;;;7.03;4.50;;;;;;;;;;10401196;28;20037;-73
2022/04/29 13:41:11;;;;;;;9.07;4.60;;;;;;;;;;10410621;28;20434;-75
2022/04/29 13:46:15;;;;;;;7.43;4.47;;;;;;;;;;10407388;28;20474;-75
2022/04/29 13:51:18;;;;;;;8.13;4.45;;;;;;;;;;10403918;28;20056;-76
2022/04/29 13:56:21;;;;;;;7.97;4.30;;;;;;;;;;10404220;28;20647;-74
2022/04/29 14:01:26;;;;;;;6.53;4.30;;;;;;;;;;10409833;28;20410;-74
2022/04/29 14:06:29;;;;;;;8.40;4.90;;;;;;;;;;10402731;28;20422;-74
2022/04/29 14:11:31;;;;;;;;;;;;;;;;;;10405584;28;20933;-73
2022/04/29 14:16:36;;;;;;;5.35;3.53;;;;;;;;;;10406177;28;20152;-74
2022/04/29 14:21:39;;;;;;;6.75;3.83;;;;;;;;;;10409937;28;20067;-74
2022/04/29 14:26:43;;;;;;;6.35;3.90;;;;;;;;;;10390062;28;20086;-73
2022/04/29 14:31:48;;;;;;;8.52;4.03;;;;;;;;;;10396900;28;20033;-74
2022/04/29 14:36:51;;;;;;;7.70;4.28;;;;;;;;;;10393901;28;20048;-74
2022/04/29 14:41:55;;;;;;;9.20;4.88;;;;;;;;;;10389911;28;20172;-73
2022/04/29 14:47:00;;;;;;;8.18;5.22;;;;;;;;;;10405431;28;20216;-74
2022/04/29 14:52:03;;;;;;;10.82;4.43;;;;;;;;;;10404096;28;20071;-72
2022/04/29 14:57:07;;;;;;;7.43;4.22;;;;;;;;;;10399760;28;20517;-73
2022/04/29 15:02:13;;;;;;;10.48;4.25;;;;;;;;;;10419099;28;20033;-74
2022/04/29 15:07:16;;;;;;;7.03;3.97;;;;;;;;;;10408334;28;20037;-74
2022/04/29 15:17:58;;;;;;;8.05;4.43;;;;;;;;;;10426218;28;20034;-74
2022/04/29 15:23:01;;;;;;;9.27;4.75;;;;;;;;;;10409893;28;20124;-74
2022/04/29 15:28:03;;;;;;;;;;;;;;;;;;10406866;28;20033;-75
2022/04/29 15:33:08;;;;;;;7.80;4.73;;;;;;;;;;10406461;28;19921;-74
2022/04/29 15:38:12;;;;;;;9.60;4.72;;;;;;;;;;10411270;28;20098;-74
2022/04/29 15:43:16;;;;;;;;;;;;;;;;;;10411555;28;20040;-75
2022/04/29 15:48:22;;;;;;;8.88;5.05;;;;;;;;;;10424198;28;19948;-73
2022/04/29 15:53:26;;;;;;;11.35;5.95;;;;;;;;;;10428974;28;20091;-76
2022/04/29 15:58:29;;;;;;;9.45;4.70;;;;;;;;;;10416942;28;20141;-76
2022/04/29 16:03:33;;;;;;;11.43;5.00;;;;;;;;;;10412412;28;20136;-75
2022/04/29 16:08:36;;;;;;;9.63;4.63;;;;;;;;;;10410644;28;20038;-76
2022/04/29 16:13:39;;;;;;;8.73;4.80;;;;;;;;;;10403559;28;20138;-74
2022/04/29 16:29:25;;;;;;;6.60;3.67;;;;;;;;;;10383156;28;20495;-76
2022/04/29 16:34:29;;;;;;;6.30;3.90;;;;;;;;;;10381147;28;20030;-75
2022/04/29 16:39:34;;;;;;;5.80;3.53;;;;;;;;;;10385669;28;20046;-76
2022/04/29 16:44:36;;;;;;;10.30;4.18;;;;;;;;;;10406889;28;20042;-76
2022/04/29 16:49:39;;;;;;;8.85;3.67;;;;;;;;;;10415781;28;20156;-75
2022/04/29 16:54:44;;;;;;;5.88;3.53;;;;;;;;;;10397129;28;20041;-75
2022/04/29 16:59:47;;;;;;;6.13;4.07;;;;;;;;;;10402700;28;20414;-75
2022/04/29 17:04:50;;;;;;;7.18;3.60;;;;;;;;;;10397797;28;20052;-77
2022/04/29 17:09:54;;;;;;;7.15;3.75;;;;;;;;;;10388999;28;20040;-73
2022/04/29 17:14:57;;;;;;;5.50;3.28;;;;;;;;;;10386144;28;20072;-76
2022/04/29 17:20:00;;;;;;;7.10;3.70;;;;;;;;;;10393615;28;20059;-76
2022/04/29 17:25:06;;;;;;;9.07;4.10;;;;;;;;;;10402363;28;20045;-76
2022/04/29 17:30:10;;;;;;;5.95;3.00;;;;;;;;;;10393499;28;20295;-73
2022/04/29 17:35:13;;;;;;;6.07;3.60;;;;;;;;;;10405809;28;20051;-75
2022/04/29 17:45:41;;;;;;;10.32;4.25;;;;;;;;;;10377286;28;20037;-75
2022/04/29 17:50:44;;;;;;;;;;;;;;;;;;10400946;28;20055;-73
2022/04/29 17:55:48;;;;;;;10.35;4.57;;;;;;;;;;10406319;28;19929;-73
2022/04/29 18:00:51;;;;;;;9.05;3.95;;;;;;;;;;10383935;28;20145;-75
2022/04/29 18:05:54;;;;;;;8.87;4.70;;;;;;;;;;10396631;28;20160;-77
2022/04/29 18:10:59;;;;;;;10.23;4.38;;;;;;;;;;10397090;28;20563;-75
2022/04/29 18:16:01;;;;;;;10.30;4.32;;;;;;;;;;10402327;28;20029;-74
2022/04/29 18:21:04;;;;;;;10.20;4.40;;;;;;;;;;10410552;28;20297;-74
2022/04/29 18:26:11;;;;;;;7.85;4.22;;;;;;;;;;10405122;28;20153;-75
2022/04/29 18:31:13;;;;;;;8.68;4.32;;;;;;;;;;10410288;28;20037;-75
2022/04/29 18:36:16;;;;;;;7.78;4.25;;;;;;;;;;10401221;28;20043;-74
2022/04/29 18:41:21;;;;;;;9.35;4.97;;;;;;;;;;10390471;28;20591;-75
2022/04/29 18:46:24;;;;;;;7.93;4.13;;;;;;;;;;10408243;28;20482;-75
2022/04/29 18:51:27;;;;;;;9.80;4.60;;;;;;;;;;10416287;28;20173;-75
2022/04/29 18:56:32;;;;;;;9.48;4.45;;;;;;;;;;10413881;28;20288;-75
2022/04/29 19:01:35;;;;;;;8.75;4.32;;;;;;;;;;10418848;28;20073;-75
2022/04/29 19:06:39;;;;;;;11.95;4.70;;;;;;;;;;10392637;28;20046;-74
2022/04/29 19:11:44;;;;;;;8.65;4.80;;;;;;;;;;10390604;28;20071;-75
2022/04/29 19:16:46;;;;;;;9.88;4.70;;;;;;;;;;10396172;28;20061;-75
2022/04/29 19:21:49;;;;;;;10.70;5.10;;;;;;;;;;10394825;28;20654;-75
2022/04/29 19:26:53;;;;;;;9.93;4.95;;;;;;;;;;10404824;28;20053;-75
2022/04/29 19:31:57;;;;;;;11.27;5.38;;;;;;;;;;10389725;28;20041;-75
2022/04/29 19:36:59;;;;;;;12.90;5.33;;;;;;;;;;10384391;28;20043;-74
2022/04/29 19:42:04;;;;;;;12.93;5.55;;;;;;;;;;10398705;28;20105;-74
2022/04/29 19:47:09;;;;;;;12.02;5.60;;;;;;;;;;10385746;28;20115;-73
2022/04/29 19:52:12;;;;;;;13.83;5.47;;;;;;;;;;10386282;28;20442;-74
2022/04/29 20:08:17;;;;;;;10.35;4.68;;;;;;;;;;10384857;28;20079;-75
2022/04/29 20:13:24;;;;;;;11.90;5.35;;;;;;;;;;10390115;28;20064;-75
2022/04/29 20:18:27;;;;;;;11.10;4.80;;;;;;;;;;10384237;28;20037;-71
2022/04/29 20:23:33;;;;;;;7.57;4.20;;;;;;;;;;10398587;28;20065;-75
2022/04/29 20:28:37;;;;;;;9.50;4.60;;;;;;;;;;10390414;28;20061;-74
2022/04/29 20:33:40;;;;;;;9.98;5.32;;;;;;;;;;10404953;28;20037;-74
2022/04/29 20:38:42;;;;;;;10.40;4.70;;;;;;;;;;10397302;28;20033;-73
2022/04/29 20:44:00;;;;;;;13.00;5.10;;;;;;;;;;10399946;28;21391;-73
2022/04/29 20:49:04;;;;;;;12.48;4.90;;;;;;;;;;10394789;28;20135;-72
2022/04/29 20:54:07;;;;;;;11.03;5.20;;;;;;;;;;10403858;28;20044;-73
2022/04/29 20:59:11;;;;;;;10.32;5.40;;;;;;;;;;10412331;28;20405;-73
2022/04/29 21:04:14;;;;;;;11.82;5.20;;;;;;;;;;10395313;28;20111;-74
2022/04/29 21:09:17;;;;;;;12.10;5.23;;;;;;;;;;10401848;28;20037;-75
2022/04/29 21:14:21;;;;;;;10.63;5.40;;;;;;;;;;10403568;28;20061;-73
2022/04/29 21:19:24;;;;;;;11.13;4.93;;;;;;;;;;10402398;28;20033;-73
2022/04/29 21:24:28;;;;;;;13.03;5.60;;;;;;;;;;10398171;28;20044;-74
2022/04/29 21:34:53;;;;;;;13.77;6.30;;;;;;;;;;10400605;28;20354;-73
2022/04/29 21:39:55;;;;;;;13.63;6.00;;;;;;;;;;10405009;28;20323;-74
2022/04/29 21:45:02;;;;;;;13.23;6.18;;;;;;;;;;10401081;28;20533;-74
2022/04/29 21:50:05;;;;;;;11.32;6.00;;;;;;;;;;10393755;28;20033;-74
2022/04/29 21:55:08;;;;;;;11.80;5.47;;;;;;;;;;10410622;28;20117;-74
2022/04/29 22:00:18;;;;;;;10.93;5.82;;;;;;;;;;10407664;28;20048;-72
2022/04/29 22:05:22;;;;;;;17.48;5.50;;;;;;;;;;10397987;28;20072;-73
2022/04/29 22:10:26;;;;;;;14.13;6.37;;;;;;;;;;10405218;28;20048;-73
2022/04/29 22:15:29;;;;;;;;;;;;;;;;;;10407091;28;20390;-74
2022/04/29 22:20:33;;;;;;;12.38;5.63;;;;;;;;;;10387022;28;19922;-72
2022/04/29 22:25:36;;;;;;;12.93;5.90;;;;;;;;;;10404186;28;20380;-73
2022/04/29 22:30:39;;;;;;;11.10;5.97;;;;;;;;;;10420679;28;20067;-73
2022/04/29 22:35:43;;;;;;;12.55;5.75;;;;;;;;;;10401760;28;20406;-71
2022/04/29 22:40:46;;;;;;;11.57;6.07;;;;;;;;;;10401479;28;20094;-72
2022/04/29 22:45:49;;;;;;;9.52;5.70;;;;;;;;;;10400991;28;20132;-71
2022/04/29 22:50:53;;;;;;;14.27;6.60;;;;;;;;;;10405761;28;20107;-69
2022/04/29 22:55:55;;;;;;;;;;;;;;;;;;10407843;28;20514;-72
2022/04/29 23:00:59;;;;;;;15.43;5.88;;;;;;;;;;10384666;28;20020;-74
2022/04/29 23:06:05;;;;;;;;;;;;;;;;;;10388792;28;20465;-73
2022/04/29 23:11:09;;;;;;;13.40;6.28;;;;;;;;;;10419858;28;19987;-72
2022/04/29 23:16:12;;;;;;;11.85;6.32;;;;;;;;;;10414558;28;20033;-71
2022/04/29 23:21:16;;;;;;;13.93;5.88;;;;;;;;;;10413510;28;20128;-73
2022/04/29 23:26:21;;;;;;;12.02;5.88;;;;;;;;;;10414556;28;20112;-73
2022/04/29 23:31:24;;;;;;;10.35;5.72;;;;;;;;;;10414329;28;20049;-70
2022/04/29 23:36:27;;;;;;;11.63;6.00;;;;;;;;;;10404560;28;20047;-72
2022/04/29 23:41:32;;;;;;;12.95;5.90;;;;;;;;;;10433710;28;20037;-73
2022/04/29 23:46:35;;;;;;;14.02;6.90;;;;;;;;;;10413908;28;20083;-74
2022/04/29 23:51:38;;;;;;;13.30;6.63;;;;;;;;;;10403514;28;20382;-71
2022/04/29 23:56:42;;;;;;;13.07;6.13;;;;;;;;;;10416208;28;20077;-73
